Time;durP1;ratioP1;P1;durP2;ratioP2;P2;SDS_P1;SDS_P2;PMS_P1;PMS_P2;Temp;Humidity;BMP_temperature;BMP_pressure;BME280_temperature;BME280_humidity;BME280_pressure;Samples;Min_cycle;Max_cycle;Signal;HPM_P1;HPM_P2
2022/10/03 00:00:18;;;;;;;16.67;4.20;;;9.40;92.30;;;;;;5115299;28;20016;-38
2022/10/03 00:03:38;;;;;;;23.95;5.97;;;9.30;92.30;;;;;;5114934;28;20050;-38
2022/10/03 00:06:23;;;;;;;22.90;5.13;;;9.30;92.30;;;;;;5012107;28;20386;-39
2022/10/03 00:09:17;;;;;;;20.50;5.13;;;9.20;92.40;;;;;;5107229;28;20032;-38
2022/10/03 00:12:12;;;;;;;13.05;3.92;;;9.10;92.40;;;;;;5115421;28;20135;-39
2022/10/03 00:14:43;;;;;;;20.88;5.00;;;9.10;92.50;;;;;;5114571;28;20076;-39
2022/10/03 00:17:28;;;;;;;18.52;5.38;;;9.10;92.50;;;;;;5114950;28;20026;-38
2022/10/03 00:20:25;;;;;;;27.20;6.28;;;9.10;92.60;;;;;;5114731;28;20034;-38
2022/10/03 00:23:05;;;;;;;10.23;4.28;;;9.10;92.60;;;;;;5066975;28;20038;-39
2022/10/03 00:25:39;;;;;;;18.35;4.55;;;9.10;92.60;;;;;;5114083;28;20039;-39
2022/10/03 00:28:29;;;;;;;17.77;7.30;;;9.10;92.70;;;;;;5114445;28;20034;-39
2022/10/03 00:31:16;;;;;;;22.43;5.97;;;9.20;92.70;;;;;;5114000;28;20019;-38
2022/10/03 00:33:59;;;;;;;21.95;9.88;;;9.20;92.70;;;;;;5114363;28;20253;-39
2022/10/03 00:36:47;;;;;;;17.35;5.22;;;9.10;92.50;;;;;;5113975;28;20024;-39
2022/10/03 00:39:19;;;;;;;13.45;5.00;;;9.10;92.60;;;;;;5114304;28;20420;-38
2022/10/03 00:41:52;;;;;;;20.38;6.32;;;9.10;92.60;;;;;;5114733;28;20027;-38
2022/10/03 00:45:01;;;;;;;13.20;5.60;;;9.00;92.70;;;;;;5097083;28;20020;-38
2022/10/03 00:47:36;;;;;;;15.18;4.60;;;9.10;92.80;;;;;;5114784;28;20106;-38
2022/10/03 00:50:26;;;;;;;16.50;5.00;;;9.00;92.90;;;;;;5114670;28;20100;-38
2022/10/03 00:53:04;;;;;;;16.23;4.93;;;9.00;92.90;;;;;;5113994;28;20023;-39
2022/10/03 00:55:56;;;;;;;20.58;4.30;;;8.90;92.90;;;;;;5114079;28;20035;-39
2022/10/03 00:58:31;;;;;;;19.33;4.82;;;8.90;92.80;;;;;;5075055;28;20059;-40
2022/10/03 01:01:17;;;;;;;22.23;5.28;;;8.80;92.80;;;;;;5113667;28;20385;-39
2022/10/03 01:04:19;;;;;;;9.00;3.65;;;8.80;92.90;;;;;;5095213;28;20023;-39
2022/10/03 01:07:02;;;;;;;9.75;4.72;;;8.80;92.90;;;;;;5113365;28;20448;-39
2022/10/03 01:09:49;;;;;;;9.55;4.72;;;8.80;93.00;;;;;;5113792;28;20066;-38
2022/10/03 01:12:47;;;;;;;15.60;4.30;;;8.70;93.00;;;;;;5113345;28;20020;-39
2022/10/03 01:15:49;;;;;;;10.02;3.47;;;8.70;93.00;;;;;;5113699;28;20055;-39
2022/10/03 01:18:22;;;;;;;9.73;4.43;;;8.70;93.00;;;;;;5096502;28;20063;-39
2022/10/03 01:20:57;;;;;;;10.30;3.40;;;8.60;93.00;;;;;;5095652;28;20387;-38
2022/10/03 01:23:22;;;;;;;13.77;6.25;;;8.60;93.00;;;;;;5113370;28;20102;-38
2022/10/03 01:25:58;;;;;;;10.27;3.65;;;8.60;93.00;;;;;;5112978;28;20236;-39
2022/10/03 01:31:49;;;;;;;15.90;4.22;;;8.60;93.10;;;;;;5113652;28;20103;-38
2022/10/03 01:34:30;;;;;;;14.85;4.85;;;8.80;93.10;;;;;;5113855;28;20106;-39
2022/10/03 01:37:11;;;;;;;12.15;4.32;;;8.70;93.00;;;;;;5113723;28;20475;-40
2022/10/03 01:39:55;;;;;;;16.95;4.93;;;8.60;93.00;;;;;;5095188;28;20036;-39
2022/10/03 01:42:43;;;;;;;19.70;4.53;;;8.50;92.90;;;;;;5095527;28;20027;-38
2022/10/03 01:45:21;;;;;;;16.85;4.88;;;8.50;92.90;;;;;;5113628;28;20031;-39
2022/10/03 01:48:08;;;;;;;12.15;4.80;;;8.50;93.00;;;;;;5115337;28;20027;-38
2022/10/03 01:50:59;;;;;;;16.20;4.50;;;8.50;93.00;;;;;;5117771;28;20028;-38
2022/10/03 01:53:57;;;;;;;17.17;4.75;;;8.40;93.00;;;;;;5117633;28;20030;-39
2022/10/03 01:56:28;;;;;;;16.67;4.28;;;8.30;93.00;;;;;;5117708;28;20384;-38
2022/10/03 01:59:36;;;;;;;8.30;3.67;;;8.30;93.00;;;;;;5117557;28;20035;-38
2022/10/03 02:02:16;;;;;;;16.35;4.57;;;8.30;92.90;;;;;;5116999;28;20028;-38
2022/10/03 02:04:56;;;;;;;;;;;8.30;93.00;;;;;;5100018;28;20028;-38
2022/10/03 02:07:47;;;;;;;17.13;4.50;;;8.30;93.00;;;;;;5117337;28;19908;-38
2022/10/03 02:10:39;;;;;;;13.00;4.47;;;8.30;93.10;;;;;;5102840;28;20052;-38
2022/10/03 02:13:27;;;;;;;12.32;4.10;;;8.30;93.10;;;;;;5099325;28;20034;-38
2022/10/03 02:16:30;;;;;;;17.17;5.53;;;8.40;93.20;;;;;;5116844;28;20031;-43
2022/10/03 02:19:15;;;;;;;18.30;5.80;;;8.40;93.10;;;;;;5116907;28;20023;-38
2022/10/03 02:21:53;;;;;;;24.23;8.35;;;8.60;93.40;;;;;;5098365;28;20051;-38
2022/10/03 02:24:28;;;;;;;16.88;6.45;;;8.70;93.40;;;;;;5098351;28;20031;-38
2022/10/03 02:27:11;;;;;;;17.35;5.90;;;8.70;93.20;;;;;;5116446;28;20050;-41
2022/10/03 02:29:59;;;;;;;17.77;6.18;;;8.70;93.00;;;;;;5116879;28;20026;-39
2022/10/03 02:32:52;;;;;;;23.02;6.10;;;8.70;93.00;;;;;;5098362;28;20024;-39
2022/10/03 02:35:27;;;;;;;17.10;6.30;;;8.70;93.10;;;;;;5116571;28;20034;-38
2022/10/03 02:38:16;;;;;;;18.15;6.95;;;8.70;93.00;;;;;;5116408;28;20015;-38
2022/10/03 02:41:04;;;;;;;15.10;5.70;;;8.70;93.10;;;;;;5097882;28;20019;-39
2022/10/03 02:44:08;;;;;;;17.08;6.57;;;8.70;93.10;;;;;;5116589;28;20324;-39
2022/10/03 02:47:08;;;;;;;30.17;6.72;;;8.70;93.10;;;;;;5097971;28;20475;-42
2022/10/03 02:50:18;;;;;;;27.07;7.13;;;8.70;93.40;;;;;;5116807;28;20050;-39
2022/10/03 02:52:52;;;;;;;24.27;6.65;;;8.80;93.30;;;;;;5105056;28;20102;-38
2022/10/03 02:55:37;;;;;;;18.38;6.20;;;8.70;93.30;;;;;;5116293;28;20023;-38
2022/10/03 02:58:20;;;;;;;26.65;7.38;;;8.60;93.40;;;;;;5115939;28;20052;-40
2022/10/03 03:00:57;;;;;;;19.73;7.15;;;8.60;93.50;;;;;;5116457;28;20019;-38
2022/10/03 03:04:04;;;;;;;17.90;5.80;;;8.60;93.60;;;;;;5116102;28;20023;-38
2022/10/03 03:07:10;;;;;;;23.27;7.97;;;8.70;93.70;;;;;;5116068;28;20024;-38
2022/10/03 03:09:46;;;;;;;20.17;6.63;;;8.60;93.70;;;;;;5116313;28;20088;-38
2022/10/03 03:12:27;;;;;;;16.20;7.18;;;8.50;93.70;;;;;;5115788;28;20121;-39
2022/10/03 03:15:11;;;;;;;14.45;6.90;;;8.50;93.70;;;;;;5115843;28;20024;-39
2022/10/03 03:18:08;;;;;;;18.42;6.70;;;8.60;93.80;;;;;;5116511;28;20510;-39
2022/10/03 03:20:53;;;;;;;23.73;8.20;;;8.60;93.80;;;;;;5080713;28;20093;-39
2022/10/03 03:23:58;;;;;;;24.95;7.07;;;8.60;93.80;;;;;;5116021;28;20057;-38
2022/10/03 03:26:30;;;;;;;22.98;6.93;;;8.60;93.80;;;;;;5093843;28;20051;-38
2022/10/03 03:29:49;;;;;;;30.83;7.80;;;8.60;93.80;;;;;;5095173;28;20020;-38
2022/10/03 03:32:36;;;;;;;18.05;6.80;;;8.60;93.80;;;;;;5016467;28;20024;-40
2022/10/03 03:35:13;;;;;;;29.13;8.25;;;8.60;93.80;;;;;;5095363;28;20111;-38
2022/10/03 03:37:42;;;;;;;18.75;8.88;;;8.60;93.80;;;;;;5095032;28;20494;-39
2022/10/03 03:40:37;;;;;;;23.13;7.93;;;8.60;93.70;;;;;;5094834;28;20074;-38
2022/10/03 03:43:33;;;;;;;24.35;8.43;;;8.60;93.60;;;;;;5094469;28;20400;-39
2022/10/03 03:46:28;;;;;;;19.17;8.10;;;8.50;93.60;;;;;;5093445;28;20392;-38
2022/10/03 03:49:28;;;;;;;15.68;7.95;;;8.50;93.60;;;;;;5093446;28;20069;-39
2022/10/03 03:51:53;;;;;;;26.88;8.52;;;8.50;93.70;;;;;;5094814;28;20020;-38
2022/10/03 03:54:31;;;;;;;29.52;10.43;;;8.50;93.80;;;;;;5094668;28;20024;-40
2022/10/03 03:57:31;;;;;;;25.75;8.60;;;8.50;93.90;;;;;;5094931;28;20032;-38
2022/10/03 04:00:29;;;;;;;28.23;8.48;;;8.50;93.80;;;;;;5094412;28;20035;-39
2022/10/03 04:03:42;;;;;;;31.10;9.40;;;8.50;93.90;;;;;;5084025;28;20032;-39
2022/10/03 04:06:22;;;;;;;32.15;10.23;;;8.50;93.80;;;;;;5071751;28;20051;-39
2022/10/03 04:09:21;;;;;;;26.00;9.50;;;8.50;93.90;;;;;;5094736;28;20024;-39
2022/10/03 04:11:50;;;;;;;22.63;9.10;;;8.50;93.90;;;;;;5094140;28;20032;-39
2022/10/03 04:14:33;;;;;;;28.17;9.80;;;8.50;93.90;;;;;;5094349;28;20107;-38
2022/10/03 04:20:43;;;;;;;36.00;9.10;;;8.50;93.90;;;;;;5094856;28;20140;-39
2022/10/03 04:23:30;;;;;;;25.35;8.38;;;8.50;93.90;;;;;;5094592;28;20055;-39
2022/10/03 04:26:25;;;;;;;20.73;7.47;;;8.50;93.90;;;;;;5099853;28;20092;-39
2022/10/03 04:29:18;;;;;;;30.02;9.63;;;8.60;93.90;;;;;;5063259;28;20360;-39
2022/10/03 04:31:48;;;;;;;22.60;9.45;;;8.60;93.90;;;;;;5115110;28;20072;-38
2022/10/03 04:34:56;;;;;;;28.15;10.32;;;8.80;93.90;;;;;;5096082;28;20019;-38
2022/10/03 04:37:40;;;;;;;23.67;9.10;;;8.90;93.80;;;;;;5114448;28;20028;-38
2022/10/03 04:40:25;;;;;;;21.02;8.68;;;8.90;93.60;;;;;;5114793;28;20032;-39
2022/10/03 04:43:05;;;;;;;24.10;9.57;;;9.00;93.60;;;;;;5114758;28;20434;-38
2022/10/03 04:45:52;;;;;;;;;;;9.10;93.70;;;;;;5115206;28;20340;-39
2022/10/03 04:48:47;;;;;;;27.52;8.40;;;9.10;93.60;;;;;;5114042;28;19904;-39
2022/10/03 04:51:59;;;;;;;22.70;10.15;;;9.20;93.60;;;;;;5108870;28;20118;-39
2022/10/03 04:54:47;;;;;;;22.55;8.73;;;9.10;93.60;;;;;;5113811;28;20038;-39
2022/10/03 04:57:30;;;;;;;19.20;9.55;;;9.00;93.50;;;;;;5114201;28;20027;-37
2022/10/03 05:00:11;;;;;;;23.17;8.20;;;9.00;93.50;;;;;;5113807;28;20139;-40
2022/10/03 05:03:04;;;;;;;24.00;7.80;;;9.00;93.60;;;;;;5113868;28;20107;-38
2022/10/03 05:05:48;;;;;;;27.80;8.45;;;9.00;93.60;;;;;;5114057;28;20023;-38
2022/10/03 05:08:25;;;;;;;18.92;7.05;;;9.10;93.60;;;;;;5113475;28;20030;-38
2022/10/03 05:11:04;;;;;;;19.83;8.35;;;9.00;93.40;;;;;;5113722;28;20027;-39
2022/10/03 05:13:33;;;;;;;20.67;7.95;;;8.90;93.40;;;;;;5113782;28;20460;-39
2022/10/03 05:16:18;;;;;;;26.25;9.35;;;8.80;93.50;;;;;;5113519;28;20020;-38
2022/10/03 05:18:54;;;;;;;27.45;9.38;;;8.80;93.60;;;;;;5095181;28;20046;-40
2022/10/03 17:22:21;;;;;;;4.75;1.35;;;14.30;77.00;;;;;;5007668;28;20163;-49
2022/10/03 17:25:28;;;;;;;6.60;2.20;;;14.20;77.40;;;;;;5007364;28;20109;-48
2022/10/03 17:27:55;;;;;;;5.82;2.70;;;14.20;78.00;;;;;;5005594;28;20022;-48
2022/10/03 17:30:45;;;;;;;11.57;2.75;;;14.10;78.50;;;;;;5006268;28;20030;-48
2022/10/03 17:33:29;;;;;;;8.00;1.58;;;14.10;78.90;;;;;;5006972;28;20109;-49
2022/10/03 17:36:23;;;;;;;12.75;3.70;;;14.10;79.10;;;;;;5006750;28;20048;-49
2022/10/03 17:38:55;;;;;;;7.35;3.13;;;13.90;79.40;;;;;;5006600;28;20026;-49
2022/10/03 17:41:35;;;;;;;8.43;3.50;;;13.90;80.10;;;;;;5006677;28;20114;-49
2022/10/03 17:44:50;;;;;;;7.72;2.92;;;13.90;80.80;;;;;;5006697;28;20026;-49
2022/10/03 17:47:21;;;;;;;6.53;3.58;;;13.80;80.90;;;;;;5006939;28;20350;-50
2022/10/03 17:50:05;;;;;;;6.07;2.10;;;13.80;80.90;;;;;;5006480;28;20130;-50
2022/10/03 17:52:32;;;;;;;7.50;3.72;;;13.60;81.00;;;;;;5006504;28;20034;-49
2022/10/03 17:55:01;;;;;;;10.38;3.17;;;13.50;81.50;;;;;;5006549;28;20038;-49
2022/10/03 17:57:35;;;;;;;6.75;3.47;;;13.40;81.90;;;;;;5006257;28;20050;-48
2022/10/03 18:00:15;;;;;;;5.70;3.20;;;13.30;82.40;;;;;;5005225;28;20331;-48
2022/10/03 18:02:54;;;;;;;6.85;3.13;;;13.30;82.40;;;;;;5006334;28;20548;-50
2022/10/03 18:05:28;;;;;;;9.57;3.72;;;13.30;82.70;;;;;;5006663;28;20370;-50
2022/10/03 18:07:56;;;;;;;9.25;3.25;;;13.30;83.00;;;;;;5007089;28;20037;-49
2022/10/03 18:10:31;;;;;;;5.97;2.80;;;13.30;83.30;;;;;;4989545;28;20109;-49
2022/10/03 18:13:00;;;;;;;7.28;2.58;;;13.20;83.40;;;;;;5006990;28;20113;-48
2022/10/03 18:16:02;;;;;;;8.17;2.60;;;13.10;83.70;;;;;;4989160;28;20477;-50
2022/10/03 18:18:39;;;;;;;7.80;4.03;;;13.10;84.00;;;;;;5066910;28;20670;-48
2022/10/03 18:21:14;;;;;;;13.57;7.05;;;13.00;84.30;;;;;;5013296;28;20042;-49
2022/10/03 18:24:10;;;;;;;11.80;6.43;;;13.00;84.60;;;;;;5006973;28;20026;-48
2022/10/03 18:26:44;;;;;;;19.90;9.80;;;13.00;85.00;;;;;;4991785;28;20435;-49
2022/10/03 18:29:31;;;;;;;22.67;10.45;;;13.00;85.30;;;;;;5005768;28;20399;-47
2022/10/03 18:32:09;;;;;;;19.83;10.13;;;13.00;85.70;;;;;;5000575;28;20019;-53
2022/10/03 18:35:02;;;;;;;23.02;10.65;;;13.00;85.80;;;;;;4993008;28;20038;-48
2022/10/03 18:37:28;;;;;;;22.55;8.43;;;12.90;85.90;;;;;;4991845;28;20528;-48
2022/10/03 18:39:56;;;;;;;15.02;5.65;;;12.90;86.00;;;;;;4992934;28;20030;-48
2022/10/03 18:42:26;;;;;;;11.43;4.15;;;12.80;85.90;;;;;;4992036;28;20531;-48
2022/10/03 18:44:54;;;;;;;;;;;12.80;85.80;;;;;;4993281;28;20025;-49
2022/10/03 18:47:43;;;;;;;6.57;3.65;;;12.60;85.90;;;;;;4993039;28;20250;-48
2022/10/03 18:50:25;;;;;;;5.18;3.10;;;12.50;86.10;;;;;;4992892;28;20022;-48
2022/10/03 18:53:20;;;;;;;9.85;3.30;;;12.40;86.40;;;;;;4993035;28;20027;-50
2022/10/03 18:56:11;;;;;;;9.73;3.28;;;12.30;86.70;;;;;;4992952;28;20030;-49
2022/10/03 18:58:42;;;;;;;11.98;4.50;;;12.20;87.20;;;;;;4999394;28;20498;-48
2022/10/03 19:01:23;;;;;;;7.95;4.95;;;12.10;87.40;;;;;;4990923;28;20144;-48
2022/10/03 19:03:53;;;;;;;;;;;12.10;87.70;;;;;;4993009;28;20364;-49
2022/10/03 19:06:30;;;;;;;16.85;9.32;;;12.10;87.80;;;;;;4992522;28;19992;-48
2022/10/03 19:09:14;;;;;;;17.73;8.52;;;12.10;88.00;;;;;;4992249;28;20033;-48
2022/10/03 19:11:49;;;;;;;17.17;6.75;;;12.10;88.20;;;;;;4992580;28;20057;-48
2022/10/03 19:14:55;;;;;;;12.98;4.85;;;12.20;88.40;;;;;;4992503;28;20072;-48
2022/10/03 19:18:10;;;;;;;15.13;5.28;;;12.20;88.40;;;;;;4992418;28;20362;-49
2022/10/03 19:20:40;;;;;;;10.80;5.25;;;12.20;88.30;;;;;;5052032;28;20052;-47
2022/10/03 19:23:25;;;;;;;14.45;5.88;;;12.30;88.30;;;;;;5003156;28;20038;-48
2022/10/03 19:26:25;;;;;;;8.60;4.13;;;12.30;88.10;;;;;;4992370;28;20034;-47
2022/10/03 19:28:55;;;;;;;9.82;4.85;;;12.30;88.10;;;;;;4992316;28;20050;-47
2022/10/03 19:31:26;;;;;;;9.52;6.22;;;12.40;88.00;;;;;;4992706;28;20023;-48
2022/10/03 19:34:02;;;;;;;10.77;6.50;;;12.40;87.90;;;;;;4991900;28;20030;-48
2022/10/03 19:36:31;;;;;;;19.40;7.68;;;12.30;87.70;;;;;;4992189;28;20486;-48
2022/10/03 19:38:58;;;;;;;12.90;5.88;;;12.30;87.80;;;;;;4991551;28;20081;-47
2022/10/03 19:41:38;;;;;;;15.93;7.22;;;12.30;87.80;;;;;;4991813;28;20041;-48
2022/10/03 19:44:13;;;;;;;14.80;7.95;;;12.20;87.80;;;;;;4991260;28;20110;-47
2022/10/03 19:46:58;;;;;;;17.42;9.30;;;12.10;88.10;;;;;;4992783;28;20027;-48
2022/10/03 19:49:33;;;;;;;18.83;9.02;;;12.00;88.20;;;;;;4991706;28;20065;-50
2022/10/03 19:52:17;;;;;;;21.00;8.88;;;11.90;88.30;;;;;;4991713;28;20136;-47
2022/10/03 19:54:53;;;;;;;26.77;12.82;;;11.90;88.70;;;;;;4990164;28;20023;-48
2022/10/03 19:57:27;;;;;;;17.40;10.88;;;11.80;88.70;;;;;;4991697;28;20132;-48
2022/10/03 19:59:56;;;;;;;22.55;12.18;;;11.80;88.90;;;;;;4991847;28;20038;-48
2022/10/03 20:02:24;;;;;;;23.52;9.38;;;11.70;89.10;;;;;;4990777;28;20466;-47
2022/10/03 20:04:52;;;;;;;15.85;9.80;;;11.60;89.20;;;;;;4992238;28;20028;-47
2022/10/03 20:07:44;;;;;;;17.73;11.25;;;11.60;89.40;;;;;;4991469;28;20119;-49
2022/10/03 20:10:47;;;;;;;20.83;11.20;;;11.50;89.60;;;;;;4991844;28;20481;-48
2022/10/03 20:13:14;;;;;;;22.50;11.80;;;11.50;89.80;;;;;;4992016;28;20478;-48
2022/10/03 20:15:46;;;;;;;25.15;13.65;;;11.50;89.90;;;;;;4991965;28;20382;-50
2022/10/03 20:18:37;;;;;;;20.27;10.93;;;11.50;90.00;;;;;;4991674;28;20018;-50
2022/10/03 20:21:09;;;;;;;19.48;9.07;;;11.40;90.10;;;;;;4991737;28;20125;-49
2022/10/03 20:23:40;;;;;;;22.63;10.75;;;11.40;90.10;;;;;;4991589;28;20381;-49
2022/10/03 20:26:25;;;;;;;24.65;12.23;;;11.30;90.10;;;;;;4991317;28;20023;-49
2022/10/03 20:29:16;;;;;;;23.38;12.60;;;11.30;90.20;;;;;;4989887;28;20114;-48
2022/10/03 20:31:42;;;;;;;;;;;11.30;90.30;;;;;;4991918;28;20026;-48
2022/10/03 20:34:14;;;;;;;21.55;12.27;;;11.30;90.40;;;;;;4991192;28;19932;-48
2022/10/03 20:36:46;;;;;;;22.08;12.23;;;11.20;90.50;;;;;;4991066;28;20065;-47
2022/10/03 20:39:16;;;;;;;20.13;10.55;;;11.20;90.60;;;;;;4990747;28;20101;-47
2022/10/03 20:41:41;;;;;;;20.65;10.00;;;11.20;90.70;;;;;;4991160;28;20034;-47
2022/10/03 20:44:16;;;;;;;22.67;10.13;;;11.20;90.70;;;;;;4990811;28;20030;-47
2022/10/03 20:46:49;;;;;;;21.25;9.60;;;11.10;90.70;;;;;;4989720;28;20019;-47
2022/10/03 20:49:32;;;;;;;20.23;11.02;;;11.10;90.80;;;;;;4990599;28;20066;-48
2022/10/03 20:52:01;;;;;;;25.85;12.73;;;11.00;90.80;;;;;;4990859;28;20030;-47
2022/10/03 20:54:50;;;;;;;19.90;12.82;;;11.00;90.90;;;;;;4990486;28;20027;-50
2022/10/03 20:57:42;;;;;;;27.40;14.38;;;11.00;91.00;;;;;;4991333;28;20304;-47
2022/10/03 21:00:21;;;;;;;30.45;15.55;;;10.90;91.10;;;;;;4990760;28;20026;-47
2022/10/03 21:03:02;;;;;;;20.73;13.30;;;10.90;91.20;;;;;;4990478;28;20367;-47
2022/10/03 21:05:42;;;;;;;23.92;12.95;;;10.80;91.10;;;;;;4991507;28;20361;-48
2022/10/03 21:08:24;;;;;;;23.25;14.63;;;10.80;91.20;;;;;;4990770;28;20026;-48
2022/10/03 21:11:01;;;;;;;22.23;11.63;;;10.70;91.20;;;;;;4990761;28;20441;-49
2022/10/03 21:13:39;;;;;;;21.23;12.10;;;10.70;91.30;;;;;;4991659;28;20030;-49
2022/10/03 21:16:19;;;;;;;22.60;12.80;;;10.70;91.40;;;;;;4991291;28;20080;-48
2022/10/03 21:18:48;;;;;;;21.95;11.88;;;10.70;91.40;;;;;;4991296;28;20026;-47
2022/10/03 21:21:39;;;;;;;22.25;12.32;;;10.70;91.30;;;;;;4990677;28;20548;-48
2022/10/03 21:24:11;;;;;;;20.75;12.38;;;10.70;91.60;;;;;;4990837;28;20034;-47
2022/10/03 21:26:42;;;;;;;21.75;11.85;;;10.70;91.30;;;;;;4990955;28;20493;-48
2022/10/03 21:29:23;;;;;;;23.52;10.90;;;10.80;91.30;;;;;;4990798;28;20101;-49
2022/10/03 21:31:54;;;;;;;22.75;11.50;;;10.80;91.30;;;;;;4991716;28;20061;-47
2022/10/03 21:34:30;;;;;;;19.70;10.82;;;10.80;91.20;;;;;;4989819;28;20113;-47
2022/10/03 21:37:11;;;;;;;21.95;10.98;;;10.80;91.20;;;;;;4990835;28;20030;-48
2022/10/03 21:40:07;;;;;;;20.88;11.45;;;10.90;91.10;;;;;;4992331;28;20466;-49
2022/10/03 21:43:17;;;;;;;17.50;11.25;;;11.00;91.10;;;;;;4991247;28;20030;-47
2022/10/03 21:45:58;;;;;;;16.58;8.82;;;10.90;91.00;;;;;;5052112;28;20052;-49
2022/10/03 21:48:46;;;;;;;16.10;9.57;;;11.00;90.90;;;;;;4995050;28;20023;-48
2022/10/03 21:51:26;;;;;;;17.83;10.20;;;10.90;90.70;;;;;;4975186;28;20030;-49
2022/10/03 21:54:10;;;;;;;18.33;10.20;;;11.00;90.70;;;;;;4991133;28;20102;-46
2022/10/03 21:56:57;;;;;;;16.63;9.43;;;10.90;90.60;;;;;;4990917;28;20516;-46
2022/10/03 21:59:35;;;;;;;15.23;8.88;;;10.90;90.60;;;;;;4990796;28;20033;-47
2022/10/03 22:02:42;;;;;;;16.65;8.27;;;11.00;90.50;;;;;;4990797;28;20040;-47
2022/10/03 22:05:26;;;;;;;14.43;9.63;;;10.90;90.50;;;;;;5010888;28;20030;-48
2022/10/03 22:07:52;;;;;;;16.40;9.57;;;10.90;90.50;;;;;;4993599;28;20379;-48
2022/10/03 22:10:21;;;;;;;18.52;11.07;;;10.80;90.50;;;;;;4994351;28;20030;-50
2022/10/03 22:12:51;;;;;;;20.10;9.85;;;10.80;90.60;;;;;;4995656;28;20027;-48
2022/10/03 22:15:45;;;;;;;19.73;11.50;;;10.80;90.60;;;;;;4993251;28;20035;-49
2022/10/03 22:18:19;;;;;;;14.23;9.07;;;10.80;90.60;;;;;;4993529;28;20109;-47
2022/10/03 22:20:55;;;;;;;13.45;7.47;;;10.80;90.60;;;;;;4993527;28;20050;-46
2022/10/03 22:23:23;;;;;;;15.60;8.48;;;10.70;90.60;;;;;;4994392;28;20535;-47
2022/10/03 22:26:17;;;;;;;14.35;8.20;;;10.70;90.80;;;;;;4994577;28;20451;-48
2022/10/03 22:29:17;;;;;;;24.23;10.32;;;10.70;90.80;;;;;;4994373;28;20026;-47
2022/10/03 22:31:55;;;;;;;21.88;8.98;;;10.70;90.80;;;;;;5026156;28;20080;-46
2022/10/03 22:34:45;;;;;;;19.52;9.57;;;10.60;90.60;;;;;;4992197;28;20030;-47
2022/10/03 22:37:13;;;;;;;16.43;9.77;;;10.50;90.80;;;;;;4993030;28;20466;-48
2022/10/03 22:39:39;;;;;;;22.55;9.23;;;10.50;90.90;;;;;;4992766;28;20030;-48
2022/10/03 22:42:06;;;;;;;15.02;7.78;;;10.50;91.00;;;;;;4992958;28;20105;-48
2022/10/03 22:44:36;;;;;;;18.02;10.02;;;10.50;91.00;;;;;;4993138;28;20030;-47
2022/10/03 22:47:11;;;;;;;17.17;9.82;;;10.50;91.00;;;;;;4993211;28;20018;-48
2022/10/03 22:49:43;;;;;;;27.10;8.98;;;10.50;91.10;;;;;;4993129;28;20386;-48
2022/10/03 22:52:25;;;;;;;18.05;9.27;;;10.40;91.10;;;;;;4993265;28;20018;-49
2022/10/03 22:54:51;;;;;;;14.25;8.50;;;10.40;91.10;;;;;;4991538;28;20023;-48
2022/10/03 22:57:18;;;;;;;18.48;8.45;;;10.40;91.20;;;;;;4993120;28;20410;-50
2022/10/03 22:59:52;;;;;;;18.73;9.63;;;10.30;91.20;;;;;;4992687;28;20092;-47
2022/10/03 23:02:25;;;;;;;16.40;9.25;;;10.30;91.20;;;;;;4992750;28;20023;-47
2022/10/03 23:04:55;;;;;;;16.58;9.02;;;10.30;91.30;;;;;;4992675;28;20030;-48
2022/10/03 23:07:51;;;;;;;13.93;7.95;;;10.20;91.30;;;;;;4993675;28;20018;-49
2022/10/03 23:10:23;;;;;;;17.23;8.25;;;10.20;91.30;;;;;;4992944;28;20061;-47
2022/10/03 23:13:04;;;;;;;14.82;7.97;;;10.20;91.30;;;;;;4991199;28;20038;-47
2022/10/03 23:15:32;;;;;;;13.20;6.97;;;10.10;91.40;;;;;;4991099;28;20027;-48
2022/10/03 23:18:28;;;;;;;20.30;7.88;;;10.20;91.40;;;;;;4992355;28;20030;-47
2022/10/03 23:21:07;;;;;;;14.57;7.13;;;10.20;91.40;;;;;;4992193;28;20121;-47
2022/10/03 23:23:52;;;;;;;15.00;7.07;;;10.20;91.40;;;;;;4992491;28;20026;-46
2022/10/03 23:26:44;;;;;;;18.95;9.52;;;10.20;91.30;;;;;;4992804;28;20042;-46
2022/10/03 23:29:14;;;;;;;14.88;7.75;;;10.30;91.20;;;;;;4992507;28;20018;-47
2022/10/03 23:31:54;;;;;;;11.85;8.38;;;10.30;91.20;;;;;;4992510;28;20033;-47
2022/10/03 23:34:38;;;;;;;16.42;7.40;;;10.30;91.10;;;;;;4992303;28;20129;-47
2022/10/03 23:37:12;;;;;;;17.38;9.23;;;10.30;91.00;;;;;;4992705;28;20049;-46
2022/10/03 23:39:54;;;;;;;13.07;6.85;;;10.30;91.00;;;;;;4992333;28;20114;-47
2022/10/03 23:42:30;;;;;;;16.88;8.45;;;10.20;90.90;;;;;;4992218;28;20041;-48
2022/10/03 23:45:05;;;;;;;14.02;7.45;;;10.20;90.90;;;;;;4992591;28;20026;-48
2022/10/03 23:47:45;;;;;;;12.93;8.20;;;10.10;90.90;;;;;;4992422;28;20027;-48
2022/10/03 23:50:20;;;;;;;15.18;9.02;;;10.10;91.00;;;;;;4992319;28;20026;-49
2022/10/03 23:52:50;;;;;;;16.40;9.30;;;10.10;91.00;;;;;;4991332;28;20474;-49
2022/10/03 23:55:38;;;;;;;15.00;8.23;;;10.10;91.00;;;;;;4992051;28;20018;-46
2022/10/03 23:58:17;;;;;;;12.88;7.43;;;10.20;91.00;;;;;;4990660;28;20482;-46
